createdAt,value
2019-04-11T00:00:27.694Z,0
2019-04-11T00:01:36.131Z,0
2019-04-11T00:02:28.893Z,0
2019-04-11T00:03:29.553Z,0
2019-04-11T00:04:30.341Z,0
2019-04-11T00:05:30.919Z,0
2019-04-11T00:06:31.782Z,0
2019-04-11T00:07:32.265Z,0
2019-04-11T00:08:32.919Z,0
2019-04-11T00:09:34.520Z,0
2019-04-11T00:10:35.383Z,0
2019-04-11T00:11:35.766Z,0
2019-04-11T00:12:36.591Z,0
2019-04-11T00:13:36.559Z,0
2019-04-11T00:14:38.056Z,0
2019-04-11T00:15:37.698Z,0
2019-04-11T00:16:39.452Z,0
2019-04-11T00:17:39.060Z,0
2019-04-11T00:18:40.936Z,0
2019-04-11T00:19:40.399Z,0
2019-04-11T00:20:42.301Z,0
2019-04-11T00:21:41.750Z,0
2019-04-11T00:22:43.526Z,0
2019-04-11T00:23:43.138Z,0
2019-04-11T00:24:45.109Z,0
2019-04-11T00:25:44.503Z,0
2019-04-11T00:26:45.188Z,0
2019-04-11T00:27:45.865Z,0
2019-04-11T00:28:46.543Z,0
2019-04-11T00:29:47.210Z,0
2019-04-11T00:30:48.370Z,0
2019-04-11T00:31:49.549Z,0
2019-04-11T00:32:49.778Z,0
2019-04-11T00:33:50.807Z,0
2019-04-11T00:34:51.172Z,0
2019-04-11T00:35:52.229Z,0
2019-04-11T00:36:52.693Z,0
2019-04-11T00:37:53.665Z,0
2019-04-11T00:38:53.354Z,0
2019-04-11T00:39:54.170Z,0
2019-04-11T00:40:54.706Z,0
2019-04-11T00:41:56.439Z,0
2019-04-11T00:42:56.061Z,0
2019-04-11T00:43:56.757Z,0
2019-04-11T00:44:57.423Z,0
2019-04-11T00:45:58.218Z,0
2019-04-11T00:46:58.793Z,0
2019-04-11T00:47:59.661Z,0
2019-04-11T00:49:00.139Z,0
2019-04-11T00:50:01.037Z,0
2019-04-11T00:51:01.536Z,0
2019-04-11T00:52:02.644Z,0
2019-04-11T00:53:03.560Z,0
2019-04-11T00:54:04.639Z,0
2019-04-11T00:55:05.048Z,0
2019-04-11T00:56:06.123Z,0
2019-04-11T00:57:06.547Z,0
2019-04-11T00:58:06.236Z,0
2019-04-11T00:59:07.971Z,0
2019-04-11T01:00:07.622Z,0
2019-04-11T01:01:09.327Z,0
2019-04-11T01:02:09.371Z,0
2019-04-11T01:03:09.770Z,0
2019-04-11T01:04:10.320Z,0
2019-04-11T01:05:11.003Z,0
2019-04-11T01:06:12.204Z,0
2019-04-11T01:07:12.348Z,0
2019-04-11T01:08:13.720Z,0
2019-04-11T01:09:13.708Z,0
2019-04-11T01:10:14.385Z,0
2019-04-11T01:11:16.042Z,0
2019-04-11T01:12:16.530Z,0
2019-04-11T01:13:17.484Z,0
2019-04-11T01:14:17.415Z,0
2019-04-11T01:15:17.776Z,0
2019-04-11T01:16:18.452Z,0
2019-04-11T01:17:19.130Z,0
2019-04-11T01:18:20.777Z,0
2019-04-11T01:19:20.527Z,0
2019-04-11T01:20:21.590Z,0
2019-04-11T01:21:21.829Z,0
2019-04-11T01:22:22.507Z,0
2019-04-11T01:23:23.184Z,0
2019-04-11T01:24:23.922Z,0
2019-04-11T01:25:24.530Z,0
2019-04-11T01:26:25.385Z,0
2019-04-11T01:27:25.855Z,0
2019-04-11T01:28:26.838Z,0
2019-04-11T01:29:27.356Z,0
2019-04-11T01:30:29.092Z,0
2019-04-11T01:31:29.454Z,0
2019-04-11T01:32:29.234Z,0
2019-04-11T01:33:29.945Z,0
2019-04-11T01:34:30.802Z,0
2019-04-11T01:35:31.261Z,0
2019-04-11T01:36:33.022Z,0
2019-04-11T01:37:33.484Z,0
2019-04-11T01:38:33.290Z,0
2019-04-11T01:39:35.044Z,0
2019-04-11T01:40:34.647Z,0
2019-04-11T01:41:36.332Z,0
2019-04-11T01:42:36.001Z,0
2019-04-11T01:43:37.759Z,0
2019-04-11T01:44:37.360Z,0
2019-04-11T01:45:38.044Z,0
2019-04-11T01:46:38.718Z,0
2019-04-11T01:47:39.429Z,0
2019-04-11T01:48:40.075Z,0
2019-04-11T01:49:40.762Z,0
2019-04-11T01:50:41.431Z,0
2019-04-11T01:51:42.233Z,0
2019-04-11T01:52:42.786Z,0
2019-04-11T01:53:43.650Z,0
2019-04-11T01:54:44.133Z,0
2019-04-11T01:55:45.091Z,0
2019-04-11T01:56:45.498Z,0
2019-04-11T01:57:46.482Z,0
2019-04-11T01:58:46.916Z,0
2019-04-11T01:59:47.903Z,0
2019-04-11T02:00:48.726Z,0
2019-04-11T02:01:49.355Z,0
2019-04-11T02:02:50.523Z,0
2019-04-11T02:03:50.206Z,0
2019-04-11T02:04:50.889Z,0
2019-04-11T02:05:51.660Z,0
2019-04-11T02:06:52.249Z,0
2019-04-11T02:07:53.244Z,0
2019-04-11T02:08:53.582Z,0
2019-04-11T02:09:54.742Z,0
2019-04-11T02:10:54.970Z,0
2019-04-11T02:11:56.168Z,0
2019-04-11T02:12:56.326Z,0
2019-04-11T02:14:08.035Z,0
2019-04-11T02:14:57.727Z,0
2019-04-11T02:15:59.632Z,0
2019-04-11T02:16:59.330Z,0
2019-04-11T02:17:59.662Z,0
2019-04-11T02:19:01.450Z,0
2019-04-11T02:20:01.014Z,0
2019-04-11T02:21:01.689Z,0
2019-04-11T02:22:02.372Z,0
2019-04-11T02:23:03.057Z,0
2019-04-11T02:24:03.753Z,0
2019-04-11T02:25:04.409Z,0
2019-04-11T02:26:05.225Z,0
2019-04-11T02:27:06.537Z,0
2019-04-11T02:28:06.622Z,0
2019-04-11T02:29:07.246Z,0
2019-04-11T02:30:08.831Z,0
2019-04-11T02:31:10.130Z,0
2019-04-11T02:32:09.945Z,0
2019-04-11T02:33:11.708Z,0
2019-04-11T02:34:11.379Z,0
2019-04-11T02:35:13.271Z,0
2019-04-11T02:36:13.606Z,0
2019-04-11T02:37:13.432Z,0
2019-04-11T02:38:14.828Z,0
2019-04-11T02:39:17.681Z,0
2019-04-11T02:40:15.470Z,0
2019-04-11T02:41:16.983Z,0
2019-04-11T02:42:16.923Z,0
2019-04-11T02:43:17.717Z,0
2019-04-11T02:44:33.727Z,0
2019-04-11T02:45:31.127Z,0
2019-04-11T02:46:27.786Z,0
2019-04-11T02:47:24.502Z,0
2019-04-11T02:48:20.662Z,0
2019-04-11T02:49:21.566Z,0
2019-04-11T02:50:23.816Z,0
2019-04-11T02:51:22.754Z,0
2019-04-11T02:52:22.992Z,0
2019-04-11T02:53:24.571Z,0
2019-04-11T02:54:26.293Z,0
2019-04-11T02:55:25.233Z,0
2019-04-11T02:56:25.818Z,0
2019-04-11T02:57:26.503Z,0
2019-04-11T02:58:27.924Z,0
2019-04-11T02:59:29.299Z,0
2019-04-11T03:00:29.191Z,0
2019-04-11T03:01:28.821Z,0
2019-04-11T03:02:30.799Z,0
2019-04-11T03:03:31.922Z,0
2019-04-11T03:04:31.140Z,0
2019-04-11T03:05:34.490Z,0
2019-04-11T03:06:33.417Z,0
2019-04-11T03:07:34.041Z,0
2019-04-11T03:08:36.349Z,0
2019-04-11T03:09:35.343Z,0
2019-04-11T03:10:37.566Z,0
2019-04-11T03:11:36.599Z,0
2019-04-11T03:12:38.278Z,0
2019-04-11T03:13:38.452Z,0
2019-04-11T03:15:02.151Z,0
2019-04-11T03:15:54.454Z,0
2019-04-11T03:16:53.042Z,0
2019-04-11T03:17:43.974Z,0
2019-04-11T03:18:58.957Z,0
2019-04-11T03:19:54.744Z,0
2019-04-11T03:20:49.621Z,0
2019-04-11T03:21:46.603Z,0
2019-04-11T03:22:45.339Z,0
2019-04-11T03:23:44.648Z,0
2019-04-11T03:24:46.867Z,0
2019-04-11T03:25:46.912Z,0
2019-04-11T03:26:46.875Z,0
2019-04-11T03:27:47.939Z,0
2019-04-11T03:28:50.281Z,0
2019-04-11T03:29:51.525Z,0
2019-04-11T03:31:21.993Z,0
2019-04-11T03:32:32.578Z,0
2019-04-11T03:34:44.599Z,0
2019-04-11T03:36:00.213Z,0
2019-04-11T03:37:24.015Z,0
2019-04-11T03:38:22.982Z,0
2019-04-11T03:39:21.794Z,0
2019-04-11T03:40:24.168Z,0
2019-04-11T03:41:20.326Z,0
2019-04-11T03:42:17.173Z,0
2019-04-11T03:43:15.124Z,0
2019-04-11T03:44:12.065Z,0
2019-04-11T03:45:26.331Z,0
2019-04-11T03:46:26.584Z,0
2019-04-11T03:47:21.940Z,0
2019-04-11T03:48:23.557Z,0
2019-04-11T03:49:23.948Z,0
2019-04-11T03:50:15.616Z,0
2019-04-11T03:51:10.950Z,0
2019-04-11T03:52:12.051Z,0
2019-04-11T03:53:11.663Z,0
2019-04-11T03:54:11.699Z,0
2019-04-11T03:55:13.298Z,0
2019-04-11T03:56:14.042Z,0
2019-04-11T03:57:15.148Z,0
2019-04-11T03:58:15.474Z,0
2019-04-11T03:59:16.579Z,0
2019-04-11T04:00:15.678Z,0
2019-04-11T04:01:18.164Z,0
2019-04-11T04:02:17.139Z,0
2019-04-11T04:03:18.232Z,0
2019-04-11T04:04:21.374Z,4
2019-04-11T04:05:19.029Z,4
2019-04-11T04:06:20.966Z,0
2019-04-11T04:07:21.387Z,4
2019-04-11T04:08:22.500Z,4
2019-04-11T04:09:23.754Z,4
2019-04-11T04:10:23.577Z,8
2019-04-11T04:11:25.292Z,8
2019-04-11T04:12:23.740Z,8
2019-04-11T04:13:26.369Z,12
2019-04-11T04:14:26.355Z,12
2019-04-11T04:15:44.294Z,16
2019-04-11T04:16:35.791Z,16
2019-04-11T04:17:28.096Z,20
2019-04-11T04:18:29.911Z,20
2019-04-11T04:19:32.534Z,28
2019-04-11T04:20:30.095Z,32
2019-04-11T04:21:31.176Z,36
2019-04-11T04:22:31.734Z,44
2019-04-11T04:23:33.594Z,52
2019-04-11T04:24:37.757Z,56
2019-04-11T04:25:34.703Z,68
2019-04-11T04:26:35.527Z,80
2019-04-11T04:27:35.393Z,92
2019-04-11T04:28:37.985Z,104
2019-04-11T04:29:37.871Z,116
2019-04-11T04:30:38.428Z,132
2019-04-11T04:31:38.566Z,148
2019-04-11T04:32:40.550Z,168
2019-04-11T04:33:40.290Z,188
2019-04-11T04:34:42.166Z,212
2019-04-11T04:35:42.373Z,236
2019-04-11T04:36:42.367Z,260
2019-04-11T04:37:43.342Z,288
2019-04-11T04:38:44.526Z,316
2019-04-11T04:39:45.615Z,344
2019-04-11T04:40:55.482Z,380
2019-04-11T04:41:53.102Z,408
2019-04-11T04:42:50.330Z,440
2019-04-11T04:43:48.117Z,476
2019-04-11T04:44:48.901Z,512
2019-04-11T04:46:07.452Z,548
2019-04-11T04:46:59.983Z,572
2019-04-11T04:47:56.608Z,604
2019-04-11T04:48:51.494Z,640
2019-04-11T04:49:52.256Z,680
2019-04-11T04:50:54.393Z,724
2019-04-11T04:51:53.335Z,780
2019-04-11T04:52:53.613Z,848
2019-04-11T04:53:53.577Z,916
2019-04-11T04:54:55.144Z,988
2019-04-11T04:55:54.927Z,1048
2019-04-11T04:56:55.606Z,1104
2019-04-11T04:57:57.751Z,1148
2019-04-11T04:58:58.540Z,1200
2019-04-11T04:59:58.499Z,1256
2019-04-11T05:00:58.681Z,1312
2019-04-11T05:01:59.343Z,1364
2019-04-11T05:03:01.953Z,1416
2019-04-11T05:04:00.391Z,1464
2019-04-11T05:05:02.048Z,1520
2019-04-11T05:06:03.854Z,1572
2019-04-11T05:07:03.277Z,1648
2019-04-11T05:08:03.117Z,1692
2019-04-11T05:09:04.261Z,1748
2019-04-11T05:10:06.491Z,1808
2019-04-11T05:11:05.145Z,1844
2019-04-11T05:12:06.155Z,1924
2019-04-11T05:13:07.771Z,2012
2019-04-11T05:14:07.333Z,2108
2019-04-11T05:15:07.979Z,2216
2019-04-11T05:16:16.836Z,2368
2019-04-11T05:17:09.234Z,2484
2019-04-11T05:18:11.381Z,2592
2019-04-11T05:19:10.720Z,2680
2019-04-11T05:20:11.979Z,2812
2019-04-11T05:21:12.851Z,2924
2019-04-11T05:22:12.675Z,3092
2019-04-11T05:23:13.917Z,3152
2019-04-11T05:24:14.566Z,3224
2019-04-11T05:25:14.787Z,3300
2019-04-11T05:26:15.372Z,3316
2019-04-11T05:27:17.336Z,3368
2019-04-11T05:28:16.736Z,3452
2019-04-11T05:29:17.499Z,3492
2019-04-11T05:30:18.793Z,3564
2019-04-11T05:31:18.789Z,3608
2019-04-11T05:32:19.753Z,3668
2019-04-11T05:33:21.181Z,3664
2019-04-11T05:34:20.830Z,3812
2019-04-11T05:35:21.508Z,3964
2019-04-11T05:36:22.726Z,4224
2019-04-11T05:37:22.894Z,4436
2019-04-11T05:38:23.560Z,4640
2019-04-11T05:39:25.460Z,4764
2019-04-11T05:40:25.886Z,4792
2019-04-11T05:41:26.194Z,4888
2019-04-11T05:42:27.131Z,4888
2019-04-11T05:43:31.426Z,4884
2019-04-11T05:44:28.478Z,4888
2019-04-11T05:45:28.315Z,4984
2019-04-11T05:46:35.309Z,4972
2019-04-11T05:47:29.750Z,4932
2019-04-11T05:48:30.518Z,4936
2019-04-11T05:49:36.185Z,4972
2019-04-11T05:50:32.043Z,5136
2019-04-11T05:51:38.931Z,5424
2019-04-11T05:52:34.196Z,5680
2019-04-11T05:53:36.212Z,6048
2019-04-11T05:54:36.507Z,6320
2019-04-11T05:55:36.051Z,6448
2019-04-11T05:56:35.767Z,6500
2019-04-11T05:57:38.425Z,6456
2019-04-11T05:58:37.125Z,6608
2019-04-11T05:59:39.004Z,6804
2019-04-11T06:00:39.113Z,7012
2019-04-11T06:01:39.211Z,7300
2019-04-11T06:02:39.849Z,7608
2019-04-11T06:03:43.193Z,7864
2019-04-11T06:04:41.228Z,8112
2019-04-11T06:05:43.137Z,8492
2019-04-11T06:06:42.593Z,8624
2019-04-11T06:07:47.247Z,8816
2019-04-11T06:08:44.227Z,8820
2019-04-11T06:09:44.643Z,8748
2019-04-11T06:10:46.480Z,8284
2019-04-11T06:11:50.355Z,8164
2019-04-11T06:12:46.681Z,7748
2019-04-11T06:13:47.365Z,7460
2019-04-11T06:14:49.228Z,7236
2019-04-11T06:15:49.273Z,7076
2019-04-11T06:16:53.846Z,7056
2019-04-11T06:17:50.366Z,7072
2019-04-11T06:18:50.777Z,7116
2019-04-11T06:19:51.465Z,7132
2019-04-11T06:20:52.149Z,7124
2019-04-11T06:21:52.824Z,7192
2019-04-11T06:22:54.056Z,7332
2019-04-11T06:23:54.194Z,7584
2019-04-11T06:24:54.879Z,7920
2019-04-11T06:25:55.682Z,8304
2019-04-11T06:26:56.867Z,8596
2019-04-11T06:27:57.902Z,8884
2019-04-11T06:28:57.598Z,9116
2019-04-11T06:29:59.192Z,9120
2019-04-11T06:30:59.050Z,9300
2019-04-11T06:31:59.641Z,9752
2019-04-11T06:33:00.405Z,10140
2019-04-11T06:34:01.009Z,10480
2019-04-11T06:35:01.983Z,10896
2019-04-11T06:36:02.374Z,11012
2019-04-11T06:37:03.588Z,11356
2019-04-11T06:38:03.742Z,11748
2019-04-11T06:39:05.124Z,12152
2019-04-11T06:40:05.109Z,12504
2019-04-11T06:41:06.263Z,12704
2019-04-11T06:42:07.487Z,12908
2019-04-11T06:43:07.820Z,12908
2019-04-11T06:44:08.827Z,13032
2019-04-11T06:45:09.339Z,13380
2019-04-11T06:46:09.205Z,13368
2019-04-11T06:47:10.384Z,13632
2019-04-11T06:48:11.568Z,13756
2019-04-11T06:49:11.997Z,13852
2019-04-11T06:50:13.108Z,13692
2019-04-11T06:51:13.610Z,13532
2019-04-11T06:52:13.299Z,13320
2019-04-11T06:53:14.802Z,13112
2019-04-11T06:54:14.792Z,13008
2019-04-11T06:55:15.338Z,12832
2019-04-11T06:56:16.839Z,12796
2019-04-11T06:57:16.702Z,12956
2019-04-11T06:58:17.389Z,13612
2019-04-11T06:59:18.486Z,14748
2019-04-11T07:00:18.918Z,16020
2019-04-11T07:01:20.286Z,16248
2019-04-11T07:02:22.716Z,17008
2019-04-11T07:03:23.148Z,17664
2019-04-11T07:04:21.832Z,17888
2019-04-11T07:05:22.577Z,18016
2019-04-11T07:06:23.842Z,17888
2019-04-11T07:07:26.142Z,17632
2019-04-11T07:08:25.102Z,17024
2019-04-11T07:09:24.889Z,16468
2019-04-11T07:10:26.540Z,16064
2019-04-11T07:11:26.256Z,15944
2019-04-11T07:12:26.942Z,15724
2019-04-11T07:13:28.380Z,15560
2019-04-11T07:14:29.129Z,15484
2019-04-11T07:15:29.376Z,15472
2019-04-11T07:16:29.719Z,15620
2019-04-11T07:17:30.353Z,15812
2019-04-11T07:18:31.266Z,15992
2019-04-11T07:19:31.809Z,16140
2019-04-11T07:20:33.509Z,16244
2019-04-11T07:21:33.330Z,16304
2019-04-11T07:22:34.797Z,16552
2019-04-11T07:23:34.562Z,17120
2019-04-11T07:24:35.252Z,17060
2019-04-11T07:25:35.938Z,17392
2019-04-11T07:26:37.342Z,19072
2019-04-11T07:27:37.302Z,18688
2019-04-11T07:28:39.215Z,19296
2019-04-11T07:29:38.676Z,19712
2019-04-11T07:30:39.695Z,20352
2019-04-11T07:31:40.038Z,21312
2019-04-11T07:32:40.722Z,21600
2019-04-11T07:33:41.413Z,20992
2019-04-11T07:34:43.372Z,21024
2019-04-11T07:35:42.782Z,21312
2019-04-11T07:36:44.046Z,22080
2019-04-11T07:37:44.726Z,23264
2019-04-11T07:38:45.855Z,22848
2019-04-11T07:39:45.520Z,23296
2019-04-11T07:40:47.473Z,24640
2019-04-11T07:41:47.923Z,23360
2019-04-11T07:42:49.394Z,24416
2019-04-11T07:43:48.245Z,26272
2019-04-11T07:44:49.512Z,36512
2019-04-11T07:45:49.603Z,23392
2019-04-11T07:46:51.496Z,30624
2019-04-11T07:47:51.056Z,24704
2019-04-11T07:48:52.662Z,24416
2019-04-11T07:49:54.921Z,25408
2019-04-11T07:50:55.014Z,25120
2019-04-11T07:51:53.874Z,32416
2019-04-11T07:52:54.474Z,29696
2019-04-11T07:53:55.157Z,26240
2019-04-11T07:54:55.841Z,24768
2019-04-11T07:55:57.796Z,34304
2019-04-11T07:56:57.219Z,28960
2019-04-11T07:57:57.898Z,39840
2019-04-11T07:58:58.658Z,24128
2019-04-11T08:00:00.114Z,22656
2019-04-11T08:00:59.950Z,22784
2019-04-11T08:02:01.562Z,24640
2019-04-11T08:03:01.924Z,25472
2019-04-11T08:04:02.003Z,26048
2019-04-11T08:05:02.689Z,25408
2019-04-11T08:06:03.377Z,25184
2019-04-11T08:07:04.421Z,28800
2019-04-11T08:08:06.785Z,49376
2019-04-11T08:09:05.773Z,51680
2019-04-11T08:10:06.458Z,53568
2019-04-11T08:11:07.151Z,52384
2019-04-11T08:12:08.741Z,39808
2019-04-11T08:13:08.518Z,27168
2019-04-11T08:14:10.401Z,45472
2019-04-11T08:15:10.035Z,29760
2019-04-11T08:16:10.617Z,36992
2019-04-11T08:17:11.516Z,31648
2019-04-11T08:18:12.489Z,43840
2019-04-11T08:19:13.155Z,46496
2019-04-11T08:20:13.304Z,38176
2019-04-11T08:21:14.296Z,40992
2019-04-11T08:22:14.866Z,39296
2019-04-11T08:23:15.823Z,43296
2019-04-11T08:24:16.336Z,46048
2019-04-11T08:25:17.423Z,45216
2019-04-11T08:26:17.955Z,37184
2019-04-11T08:27:18.108Z,39808
2019-04-11T08:28:18.796Z,43360
2019-04-11T08:29:20.117Z,46336
2019-04-11T08:30:20.179Z,49920
2019-04-11T08:31:21.532Z,50304
2019-04-11T08:32:22.023Z,51104
2019-04-11T08:33:22.495Z,51584
2019-04-11T08:34:23.655Z,52768
2019-04-11T08:35:24.052Z,55488
2019-04-11T08:36:24.386Z,54432
2019-04-11T08:37:25.026Z,49344
2019-04-11T08:38:26.655Z,44672
2019-04-11T08:39:26.403Z,42816
2019-04-11T08:40:28.128Z,43552
2019-04-11T08:41:27.793Z,45504
2019-04-11T08:42:29.624Z,48480
2019-04-11T08:43:29.257Z,51712
2019-04-11T08:44:30.090Z,55456
2019-04-11T08:45:31.914Z,57632
2019-04-11T08:46:31.315Z,57344
2019-04-11T08:47:41.554Z,55136
2019-04-11T08:48:33.063Z,56000
2019-04-11T08:49:34.863Z,53344
2019-04-11T08:50:34.495Z,54720
2019-04-11T08:51:35.684Z,54464
2019-04-11T08:52:36.121Z,54976
2019-04-11T08:53:37.102Z,56096
2019-04-11T08:54:37.625Z,57344
2019-04-11T08:55:48.644Z,56352
2019-04-11T08:56:39.062Z,56288
2019-04-11T08:57:40.946Z,55552
2019-04-11T08:58:40.592Z,49760
2019-04-11T08:59:40.257Z,21824
2019-04-11T09:00:42.179Z,25600
2019-04-11T09:01:42.405Z,48416
2019-04-11T09:02:42.879Z,60032
2019-04-11T09:03:44.048Z,51872
2019-04-11T09:04:43.689Z,68352
2019-04-11T09:05:44.383Z,74208
2019-04-11T09:06:45.132Z,30464
2019-04-11T09:07:45.822Z,34720
2019-04-11T09:08:46.935Z,41632
2019-04-11T09:09:47.493Z,37312
2019-04-11T09:10:49.224Z,41792
2019-04-11T09:11:48.989Z,64832
2019-04-11T09:12:49.549Z,42752
2019-04-11T09:13:51.373Z,54208
2019-04-11T09:14:50.929Z,62560
2019-04-11T09:15:51.618Z,78432
2019-04-11T09:16:52.314Z,50304
2019-04-11T09:17:58.933Z,53056
2019-04-11T09:18:54.443Z,42976
2019-04-11T09:19:55.036Z,56288
2019-04-11T09:20:55.996Z,50080
2019-04-11T09:21:56.248Z,50208
2019-04-11T09:22:57.473Z,66528
2019-04-11T09:23:57.741Z,68192
2019-04-11T09:24:58.930Z,77408
2019-04-11T09:25:59.575Z,62400
2019-04-11T09:27:00.357Z,53120
2019-04-11T09:28:00.850Z,55232
2019-04-11T09:29:01.869Z,55008
2019-04-11T09:30:02.608Z,45248
2019-04-11T09:31:04.228Z,43456
2019-04-11T09:32:04.387Z,48288
2019-04-11T09:33:04.721Z,50688
2019-04-11T09:34:05.790Z,79520
2019-04-11T09:35:06.186Z,64672
2019-04-11T09:36:06.348Z,64128
2019-04-11T09:37:07.283Z,48352
2019-04-11T09:38:08.477Z,46336
2019-04-11T09:39:08.634Z,55328
2019-04-11T09:40:09.928Z,61344
2019-04-11T09:41:09.795Z,52928
2019-04-11T09:42:11.583Z,62592
2019-04-11T09:43:11.504Z,24192
2019-04-11T09:44:12.810Z,23904
2019-04-11T09:45:13.135Z,24768
2019-04-11T09:46:14.346Z,68160
2019-04-11T09:47:13.922Z,56384
2019-04-11T09:48:17.346Z,58304
2019-04-11T09:49:15.307Z,71040
2019-04-11T09:50:16.083Z,32416
2019-04-11T09:51:17.738Z,67168
2019-04-11T09:52:17.372Z,70592
2019-04-11T09:53:19.155Z,69376
2019-04-11T09:54:19.765Z,68544
2019-04-11T09:55:19.446Z,73856
2019-04-11T09:56:20.800Z,70720
2019-04-11T09:57:20.792Z,67936
2019-04-11T09:58:21.485Z,67616
2019-04-11T09:59:22.980Z,17736
2019-04-11T10:00:22.989Z,18484
2019-04-11T10:01:24.581Z,19680
2019-04-11T10:02:25.336Z,75104
2019-04-11T10:03:25.627Z,49984
2019-04-11T10:04:25.672Z,72192
2019-04-11T10:05:26.562Z,71424
2019-04-11T10:06:28.053Z,73376
2019-04-11T10:07:28.083Z,54880
2019-04-11T10:08:28.387Z,41120
2019-04-11T10:09:30.253Z,47840
2019-04-11T10:10:29.773Z,63072
2019-04-11T10:11:30.492Z,59552
2019-04-11T10:12:31.875Z,78144
2019-04-11T10:13:33.943Z,42528
2019-04-11T10:14:33.492Z,21920
2019-04-11T10:15:33.746Z,19936
2019-04-11T10:16:33.924Z,19520
2019-04-11T10:17:35.945Z,19808
2019-04-11T10:18:38.697Z,20640
2019-04-11T10:19:36.130Z,21792
2019-04-11T10:20:37.045Z,23104
2019-04-11T10:21:37.541Z,24320
2019-04-11T10:22:38.377Z,26336
2019-04-11T10:23:38.752Z,29760
2019-04-11T10:24:40.765Z,36288
2019-04-11T10:25:40.161Z,37120
2019-04-11T10:26:40.821Z,42624
2019-04-11T10:27:41.617Z,38784
2019-04-11T10:28:42.206Z,39200
2019-04-11T10:29:43.978Z,37504
2019-04-11T10:30:44.168Z,37088
2019-04-11T10:31:44.404Z,35904
2019-04-11T10:32:45.564Z,34688
2019-04-11T10:33:46.811Z,33408
2019-04-11T10:34:46.338Z,32832
2019-04-11T10:35:48.290Z,32480
2019-04-11T10:36:47.719Z,32224
2019-04-11T10:37:48.420Z,32064
2019-04-11T10:38:49.118Z,31872
2019-04-11T10:39:49.800Z,31584
2019-04-11T10:40:50.493Z,31520
2019-04-11T10:41:51.196Z,32032
2019-04-11T10:42:51.950Z,32096
2019-04-11T10:43:53.684Z,32512
2019-04-11T10:44:54.067Z,32928
2019-04-11T10:45:55.206Z,33504
2019-04-11T10:46:55.662Z,33888
2019-04-11T10:47:55.938Z,34208
2019-04-11T10:48:56.950Z,34432
2019-04-11T10:49:56.762Z,34016
2019-04-11T10:50:58.319Z,33312
2019-04-11T10:51:58.325Z,32320
2019-04-11T10:52:59.023Z,30848
2019-04-11T10:53:59.730Z,29056
2019-04-11T10:55:00.866Z,27360
2019-04-11T10:56:02.143Z,26080
2019-04-11T10:57:01.778Z,25216
2019-04-11T10:58:02.704Z,24768
2019-04-11T10:59:03.174Z,24704
2019-04-11T11:00:05.058Z,24928
2019-04-11T11:01:04.538Z,25344
2019-04-11T11:02:06.526Z,25632
2019-04-11T11:03:06.225Z,25888
2019-04-11T11:04:07.375Z,25856
2019-04-11T11:05:07.404Z,25664
2019-04-11T11:06:07.986Z,25568
2019-04-11T11:07:10.215Z,25408
2019-04-11T11:08:09.362Z,25216
2019-04-11T11:09:10.156Z,24800
2019-04-11T11:10:11.121Z,24288
2019-04-11T11:11:13.311Z,23872
2019-04-11T11:12:12.734Z,23552
2019-04-11T11:13:13.852Z,23264
2019-04-11T11:14:14.283Z,23040
2019-04-11T11:15:15.462Z,23008
2019-04-11T11:16:15.889Z,23328
2019-04-11T11:17:28.862Z,23328
2019-04-11T11:19:40.386Z,23424
2019-04-11T11:20:25.774Z,23648
2019-04-11T11:21:25.971Z,23840
2019-04-11T11:22:22.573Z,23936
2019-04-11T11:23:21.622Z,23936
2019-04-11T11:24:22.309Z,23904
2019-04-11T11:25:23.022Z,23968
2019-04-11T11:26:24.791Z,24128
2019-04-11T11:27:24.460Z,24064
2019-04-11T11:28:25.932Z,23776
2019-04-11T11:29:26.651Z,23232
2019-04-11T11:30:27.373Z,22464
2019-04-11T11:31:27.971Z,21664
2019-04-11T11:32:27.815Z,20928
2019-04-11T11:33:28.506Z,20160
2019-04-11T11:34:30.443Z,19424
2019-04-11T11:35:32.878Z,18784
2019-04-11T11:36:34.869Z,18272
2019-04-11T11:37:31.312Z,17920
2019-04-11T11:38:31.953Z,17792
2019-04-11T11:39:33.367Z,17728
2019-04-11T11:40:38.367Z,17792
2019-04-11T11:41:34.040Z,17984
2019-04-11T11:42:34.707Z,18272
2019-04-11T11:43:35.402Z,18752
2019-04-11T11:44:37.049Z,19200
2019-04-11T11:45:37.403Z,19808
2019-04-11T11:46:38.313Z,20416
2019-04-11T11:47:39.971Z,21184
2019-04-11T11:48:39.677Z,21760
2019-04-11T11:49:48.695Z,21760
2019-04-11T11:50:40.209Z,21376
2019-04-11T11:51:41.513Z,20704
2019-04-11T11:52:42.805Z,19968
2019-04-11T11:53:42.837Z,19296
2019-04-11T11:54:43.933Z,18784
2019-04-11T11:55:43.648Z,18240
2019-04-11T11:56:44.477Z,17240
2019-04-11T11:57:45.025Z,16024
2019-04-11T11:58:52.993Z,14628
2019-04-11T11:59:46.406Z,13312
2019-04-11T12:00:49.724Z,12220
2019-04-11T12:01:50.943Z,11420
2019-04-11T12:02:49.117Z,10844
2019-04-11T12:03:49.155Z,10528
2019-04-11T12:04:49.848Z,10524
2019-04-11T12:05:52.462Z,10720
2019-04-11T12:06:58.092Z,11020
2019-04-11T12:07:54.334Z,11344
2019-04-11T12:08:52.595Z,11564
2019-04-11T12:09:53.288Z,11784
2019-04-11T12:10:53.973Z,11980
2019-04-11T12:11:55.529Z,12216
2019-04-11T12:12:56.001Z,12492
2019-04-11T12:13:56.043Z,12824
2019-04-11T12:14:56.721Z,13224
2019-04-11T12:15:57.426Z,13768
2019-04-11T12:17:01.944Z,14476
2019-04-11T12:17:59.610Z,15172
2019-04-11T12:19:00.539Z,15816
2019-04-11T12:20:06.439Z,16524
2019-04-11T12:21:01.088Z,17396
2019-04-11T12:22:02.272Z,18496
2019-04-11T12:23:02.218Z,19328
2019-04-11T12:24:06.529Z,20352
2019-04-11T12:25:04.797Z,21376
2019-04-11T12:26:05.384Z,22368
2019-04-11T12:27:04.973Z,23168
2019-04-11T12:28:10.132Z,23552
2019-04-11T12:29:06.378Z,23488
2019-04-11T12:30:08.712Z,22880
2019-04-11T12:31:07.722Z,21856
2019-04-11T12:32:08.410Z,20896
2019-04-11T12:33:09.098Z,20096
2019-04-11T12:34:10.258Z,19424
2019-04-11T12:35:11.538Z,18720
2019-04-11T12:36:12.451Z,18048
2019-04-11T12:37:12.496Z,17152
2019-04-11T12:38:13.143Z,16436
2019-04-11T12:39:13.837Z,15804
2019-04-11T12:40:14.524Z,15212
2019-04-11T12:41:15.269Z,14608
2019-04-11T12:42:15.904Z,14116
2019-04-11T12:43:16.593Z,13876
2019-04-11T12:44:17.291Z,13896
2019-04-11T12:45:17.982Z,14092
2019-04-11T12:46:19.366Z,14416
2019-04-11T12:47:19.354Z,14864
2019-04-11T12:48:20.053Z,15436
2019-04-11T12:49:20.738Z,16124
2019-04-11T12:50:21.429Z,16900
2019-04-11T12:51:22.148Z,17952
2019-04-11T12:52:22.811Z,18752
2019-04-11T12:53:23.516Z,19552
2019-04-11T12:54:24.191Z,20320
2019-04-11T12:55:24.885Z,21120
2019-04-11T12:56:25.576Z,21888
2019-04-11T12:57:26.262Z,22656
2019-04-11T12:58:26.961Z,23456
2019-04-11T12:59:27.645Z,24224
2019-04-11T13:00:28.336Z,25024
2019-04-11T13:01:29.027Z,25760
2019-04-11T13:02:29.718Z,26400
2019-04-11T13:03:30.421Z,26976
2019-04-11T13:04:31.106Z,27552
2019-04-11T13:05:31.794Z,27968
2019-04-11T13:06:35.659Z,28096
2019-04-11T13:07:33.207Z,28064
2019-04-11T13:08:33.867Z,28160
2019-04-11T13:09:34.558Z,28448
2019-04-11T13:10:35.247Z,28832
2019-04-11T13:11:35.985Z,29056
2019-04-11T13:12:36.631Z,29152
2019-04-11T13:13:37.317Z,29152
2019-04-11T13:14:38.012Z,29152
2019-04-11T13:15:38.707Z,29248
2019-04-11T13:16:39.396Z,29440
2019-04-11T13:17:40.088Z,29568
2019-04-11T13:18:40.790Z,29728
2019-04-11T13:19:41.478Z,30048
2019-04-11T13:20:42.168Z,30560
2019-04-11T13:21:42.862Z,30848
2019-04-11T13:22:43.548Z,30880
2019-04-11T13:23:44.245Z,30912
2019-04-11T13:24:44.929Z,31104
2019-04-11T13:25:45.667Z,31200
2019-04-11T13:26:46.307Z,30880
2019-04-11T13:27:46.996Z,30368
2019-04-11T13:28:47.688Z,30144
2019-04-11T13:29:48.384Z,30368
2019-04-11T13:30:49.081Z,30720
2019-04-11T13:31:49.772Z,31104
2019-04-11T13:32:50.461Z,31232
2019-04-11T13:33:51.158Z,31136
2019-04-11T13:34:51.851Z,31264
2019-04-11T13:35:52.544Z,33632
2019-04-11T13:36:53.235Z,31104
2019-04-11T13:37:53.926Z,30368
2019-04-11T13:38:54.623Z,29664
2019-04-11T13:39:55.321Z,29024
2019-04-11T13:40:56.017Z,28320
2019-04-11T13:41:56.703Z,27200
2019-04-11T13:42:57.395Z,26208